Time;durP1;ratioP1;P1;durP2;ratioP2;P2;SDS_P1;SDS_P2;PMS_P1;PMS_P2;Temp;Humidity;BMP_temperature;BMP_pressure;BME280_temperature;BME280_humidity;BME280_pressure;Samples;Min_cycle;Max_cycle;Signal;HPM_P1;HPM_P2
2023/05/08 00:01:24;;;;;;;;;;;11.60;99.90;;;;;;5132531;27;20277;-70
2023/05/08 00:03:50;;;;;;;;;;;11.60;99.90;;;;;;5130237;27;19916;-70
2023/05/08 00:06:16;;;;;;;;;;;11.60;99.90;;;;;;5119661;27;20015;-70
2023/05/08 00:08:41;;;;;;;;;;;11.50;99.90;;;;;;5142511;27;20005;-70
2023/05/08 00:11:07;;;;;;;;;;;11.50;99.90;;;;;;5131360;27;19919;-70
2023/05/08 00:13:33;;;;;;;;;;;11.50;99.90;;;;;;5131288;27;19923;-70
2023/05/08 00:15:58;;;;;;;;;;;11.50;99.90;;;;;;5131531;27;19915;-70
2023/05/08 00:18:24;;;;;;;;;;;11.40;99.90;;;;;;5144317;27;19919;-70
2023/05/08 00:20:50;;;;;;;;;;;11.40;99.90;;;;;;5114603;27;19919;-70
2023/05/08 00:23:15;;;;;;;;;;;11.40;99.90;;;;;;5114251;27;20293;-70
2023/05/08 00:25:41;;;;;;;;;;;11.40;99.90;;;;;;5132437;27;19922;-69
2023/05/08 00:28:06;;;;;;;;;;;11.40;99.90;;;;;;5131129;27;19919;-70
2023/05/08 00:30:32;;;;;;;;;;;11.40;99.90;;;;;;5133394;27;19927;-70
2023/05/08 00:32:58;;;;;;;;;;;11.30;99.90;;;;;;5118552;27;19919;-69
2023/05/08 00:35:23;;;;;;;;;;;11.30;99.90;;;;;;5130137;27;20382;-69
2023/05/08 00:37:49;;;;;;;;;;;11.30;99.90;;;;;;5113995;27;19919;-69
2023/05/08 00:40:15;;;;;;;;;;;11.30;99.90;;;;;;5131053;27;19919;-69
2023/05/08 00:42:41;;;;;;;;;;;11.20;99.90;;;;;;5131058;27;19928;-69
2023/05/08 00:45:07;;;;;;;;;;;11.30;99.90;;;;;;5130377;27;19919;-69
2023/05/08 00:47:33;;;;;;;;;;;11.20;99.90;;;;;;5115568;27;19968;-70
2023/05/08 00:49:59;;;;;;;;;;;11.20;99.90;;;;;;5111794;27;20778;-70
2023/05/08 00:52:26;;;;;;;;;;;11.20;99.90;;;;;;5134523;27;19927;-69
2023/05/08 00:54:51;;;;;;;;;;;11.10;99.90;;;;;;5135780;27;19926;-69
2023/05/08 00:57:17;;;;;;;;;;;11.10;99.90;;;;;;5131829;27;19923;-69
2023/05/08 00:59:44;;;;;;;;;;;11.10;99.90;;;;;;5119104;27;19931;-69
2023/05/08 01:02:10;;;;;;;;;;;11.10;99.90;;;;;;5119319;27;20346;-69
2023/05/08 01:04:35;;;;;;;;;;;11.10;99.90;;;;;;5131050;27;19938;-69
2023/05/08 01:07:01;;;;;;;;;;;11.10;99.90;;;;;;5139316;27;20266;-69
2023/05/08 01:09:27;;;;;;;;;;;11.10;99.90;;;;;;5126663;27;19915;-69
2023/05/08 01:12:01;;;;;;;;;;;11.00;99.90;;;;;;5131474;27;19923;-69
2023/05/08 01:14:47;;;;;;;;;;;11.00;99.90;;;;;;5132182;27;20013;-69
2023/05/08 01:17:22;;;;;;;;;;;11.00;99.90;;;;;;5138935;27;19916;-69
2023/05/08 01:20:07;;;;;;;;;;;11.00;99.90;;;;;;5131720;27;19923;-69
2023/05/08 01:22:55;;;;;;;;;;;11.00;99.90;;;;;;5147716;27;19943;-69
2023/05/08 01:25:39;;;;;;;;;;;11.00;99.90;;;;;;5130190;27;19919;-69
2023/05/08 01:28:11;;;;;;;;;;;10.90;99.90;;;;;;5147054;27;19923;-69
2023/05/08 01:30:48;;;;;;;;;;;10.90;99.90;;;;;;5148572;27;19927;-69
2023/05/08 01:33:24;;;;;;;;;;;10.90;99.90;;;;;;5133644;27;19967;-69
2023/05/08 01:35:54;;;;;;;;;;;10.90;99.90;;;;;;5131356;27;19919;-69
2023/05/08 01:38:25;;;;;;;;;;;10.90;99.90;;;;;;5122637;27;20010;-69
2023/05/08 01:41:13;;;;;;;;;;;10.90;99.90;;;;;;5130342;27;19972;-69
2023/05/08 01:43:52;;;;;;;;;;;10.80;99.90;;;;;;5133975;27;20354;-69
2023/05/08 01:46:26;;;;;;;;;;;10.80;99.90;;;;;;5128803;27;19926;-69
2023/05/08 01:49:12;;;;;;;;;;;10.80;99.90;;;;;;5131084;27;19999;-70
2023/05/08 01:51:43;;;;;;;;;;;10.80;99.90;;;;;;5131248;27;19927;-70
2023/05/08 01:54:11;;;;;;;;;;;10.80;99.90;;;;;;5144053;27;20009;-70
2023/05/08 01:56:38;;;;;;;;;;;10.70;99.90;;;;;;5148652;27;20697;-70
2023/05/08 01:59:05;;;;;;;;;;;10.70;99.90;;;;;;5126806;27;19919;-70
2023/05/08 02:01:32;;;;;;;;;;;10.70;99.90;;;;;;5127266;27;19919;-70
2023/05/08 02:03:58;;;;;;;;;;;10.70;99.90;;;;;;5130522;27;20008;-70
2023/05/08 02:06:25;;;;;;;;;;;10.70;99.90;;;;;;5131102;27;19935;-70
2023/05/08 02:08:52;;;;;;;;;;;10.70;99.90;;;;;;5135730;27;20021;-70
2023/05/08 02:11:19;;;;;;;;;;;10.70;99.90;;;;;;5129799;27;19916;-70
2023/05/08 02:13:46;;;;;;;;;;;10.60;99.90;;;;;;5133346;27;19915;-72
2023/05/08 02:16:12;;;;;;;;;;;10.60;99.90;;;;;;5133575;27;19972;-70
2023/05/08 02:18:39;;;;;;;;;;;10.60;99.90;;;;;;5141196;27;19923;-70
2023/05/08 02:21:06;;;;;;;;;;;10.50;99.90;;;;;;5152493;27;19973;-70
2023/05/08 02:23:32;;;;;;;;;;;10.50;99.90;;;;;;5139692;27;19923;-70
2023/05/08 02:25:58;;;;;;;;;;;10.50;99.90;;;;;;5133608;27;19922;-69
2023/05/08 02:28:24;;;;;;;;;;;10.50;99.90;;;;;;5144536;27;19924;-70
2023/05/08 02:30:51;;;;;;;;;;;10.50;99.90;;;;;;5128990;27;19990;-70
2023/05/08 02:33:17;;;;;;;;;;;10.40;99.90;;;;;;5149790;27;20254;-70
2023/05/08 02:35:43;;;;;;;;;;;10.40;99.90;;;;;;5136969;27;19915;-70
2023/05/08 02:38:09;;;;;;;;;;;10.40;99.90;;;;;;5137256;27;20265;-70
2023/05/08 02:40:37;;;;;;;;;;;10.40;99.90;;;;;;5131811;27;19923;-70
2023/05/08 02:43:03;;;;;;;;;;;10.30;99.90;;;;;;5136784;27;19914;-70
2023/05/08 02:45:34;;;;;;;;;;;10.30;99.90;;;;;;5134245;27;20260;-70
2023/05/08 02:48:25;;;;;;;;;;;10.30;99.90;;;;;;5146580;27;20649;-70
2023/05/08 02:51:02;;;;;;;;;;;10.20;99.90;;;;;;5117554;27;20215;-70
2023/05/08 02:53:33;;;;;;;;;;;10.20;99.90;;;;;;5143645;27;20407;-70
2023/05/08 02:56:10;;;;;;;;;;;10.20;99.90;;;;;;5150464;27;19922;-70
2023/05/08 02:58:41;;;;;;;;;;;10.20;99.90;;;;;;5134487;27;19923;-70
2023/05/08 03:01:27;;;;;;;;;;;10.20;99.90;;;;;;5131227;27;19944;-70
2023/05/08 03:03:58;;;;;;;;;;;10.10;99.90;;;;;;5136715;27;19929;-70
2023/05/08 03:06:25;;;;;;;;;;;10.10;99.90;;;;;;5150631;27;19915;-70
2023/05/08 03:08:53;;;;;;;;;;;10.10;99.90;;;;;;5123143;27;20011;-70
2023/05/08 03:11:21;;;;;;;;;;;10.10;99.90;;;;;;5133875;27;19923;-70
2023/05/08 03:13:48;;;;;;;;;;;10.10;99.90;;;;;;5139718;27;19926;-70
2023/05/08 03:16:19;;;;;;;;;;;10.10;99.90;;;;;;5132788;27;19959;-70
2023/05/08 03:18:57;;;;;;;;;;;10.00;99.90;;;;;;5140333;27;19967;-70
2023/05/08 03:21:25;;;;;;;;;;;10.00;99.90;;;;;;5145634;27;19916;-70
2023/05/08 03:23:51;;;;;;;;;;;10.00;99.90;;;;;;5140286;27;20433;-70
2023/05/08 03:26:21;;;;;;;;;;;10.00;99.90;;;;;;5139270;27;20009;-70
2023/05/08 03:28:51;;;;;;;;;;;10.00;99.90;;;;;;5134239;27;19934;-70
2023/05/08 03:31:19;;;;;;;;;;;10.00;99.90;;;;;;5132371;27;19995;-70
2023/05/08 03:33:46;;;;;;;;;;;9.90;99.90;;;;;;5138089;27;19926;-70
2023/05/08 03:36:12;;;;;;;;;;;9.90;99.90;;;;;;5139611;27;19915;-70
2023/05/08 03:38:38;;;;;;;;;;;9.90;99.90;;;;;;5137459;27;20255;-70
2023/05/08 03:41:03;;;;;;;;;;;9.90;99.90;;;;;;5131940;27;19923;-70
2023/05/08 03:43:30;;;;;;;;;;;9.90;99.90;;;;;;5115898;27;19915;-70
2023/05/08 03:45:56;;;;;;;;;;;9.90;99.90;;;;;;5131920;27;20014;-70
2023/05/08 03:48:22;;;;;;;;;;;9.80;99.90;;;;;;5133675;27;19919;-70
2023/05/08 03:50:49;;;;;;;;;;;9.80;99.90;;;;;;5149540;27;19922;-70
2023/05/08 03:53:15;;;;;;;;;;;9.80;99.90;;;;;;5150470;27;19933;-70
2023/05/08 03:55:40;;;;;;;;;;;9.80;99.90;;;;;;5131740;27;19923;-70
2023/05/08 03:58:06;;;;;;;;;;;9.80;99.90;;;;;;5131601;27;19919;-70
2023/05/08 04:00:50;;;;;;;;;;;9.80;99.90;;;;;;5139814;27;19918;-70
2023/05/08 04:03:40;;;;;;;;;;;9.80;99.90;;;;;;5150705;27;19919;-70
2023/05/08 04:06:21;;;;;;;;;;;9.80;99.90;;;;;;5132491;27;19919;-70
2023/05/08 04:08:59;;;;;;;;;;;9.80;99.90;;;;;;5133957;27;20279;-70
2023/05/08 04:11:29;;;;;;;;;;;9.80;99.90;;;;;;5149945;27;19922;-70
2023/05/08 04:13:59;;;;;;;;;;;9.80;99.90;;;;;;5147802;27;20222;-70
2023/05/08 04:16:30;;;;;;;;;;;9.80;99.90;;;;;;5138343;27;19915;-70
2023/05/08 04:18:58;;;;;;;;;;;9.80;99.90;;;;;;5105960;27;20005;-71
2023/05/08 04:21:24;;;;;;;;;;;9.80;99.90;;;;;;5124068;27;19915;-71
2023/05/08 04:23:50;;;;;;;;;;;9.80;99.90;;;;;;5133337;27;19925;-71
2023/05/08 04:26:16;;;;;;;;;;;9.90;99.90;;;;;;5114662;27;19926;-71
2023/05/08 04:28:42;;;;;;;;;;;9.90;99.90;;;;;;5134936;27;19923;-71
2023/05/08 04:31:08;;;;;;;;;;;9.90;99.90;;;;;;5128605;27;19937;-71
2023/05/08 04:33:34;;;;;;;;;;;9.90;99.90;;;;;;5131228;27;19919;-71
2023/05/08 04:36:03;;;;;;;;;;;9.90;99.90;;;;;;5121074;27;19916;-71
2023/05/08 04:38:28;;;;;;;;;;;9.90;99.90;;;;;;5130939;27;19961;-71
2023/05/08 04:40:54;;;;;;;;;;;9.90;99.90;;;;;;5133802;27;19958;-71
2023/05/08 04:43:20;;;;;;;;;;;9.90;99.90;;;;;;5129476;27;20029;-71
2023/05/08 04:45:46;;;;;;;;;;;10.00;99.90;;;;;;5127575;27;19919;-70
2023/05/08 04:48:11;;;;;;;;;;;10.00;99.90;;;;;;5129063;27;19922;-70
2023/05/08 04:50:37;;;;;;;;;;;10.00;99.90;;;;;;5130064;27;20401;-71
2023/05/08 04:53:03;;;;;;;;;;;10.00;99.90;;;;;;5143145;27;19927;-71
2023/05/08 04:55:28;;;;;;;;;;;10.10;99.90;;;;;;5120117;27;19926;-72
2023/05/08 04:57:54;;;;;;;;;;;10.10;99.90;;;;;;5134690;27;20056;-71
2023/05/08 05:00:20;;;;;;;;;;;10.10;99.90;;;;;;5141720;27;19952;-71
2023/05/08 05:02:45;;;;;;;;;;;10.10;99.90;;;;;;5143987;27;19919;-71
2023/05/08 05:05:11;;;;;;;;;;;10.20;99.90;;;;;;5135118;27;19923;-73
2023/05/08 05:07:36;;;;;;;;;;;10.20;99.90;;;;;;5140502;27;19994;-72
2023/05/08 05:10:03;;;;;;;;;;;10.30;99.90;;;;;;5133625;27;20270;-72
2023/05/08 05:12:28;;;;;;;;;;;10.30;99.90;;;;;;5130348;27;19923;-71
2023/05/08 05:14:54;;;;;;;;;;;10.30;99.90;;;;;;5119591;27;20363;-71
2023/05/08 05:17:20;;;;;;;;;;;10.40;99.90;;;;;;5126977;27;19919;-71
2023/05/08 05:19:46;;;;;;;;;;;10.40;99.90;;;;;;5140381;27;20014;-71
2023/05/08 05:22:11;;;;;;;;;;;10.40;99.90;;;;;;5126235;27;20013;-71
2023/05/08 05:24:38;;;;;;;;;;;10.50;99.90;;;;;;5114822;27;19918;-71
2023/05/08 05:27:04;;;;;;;;;;;10.50;99.90;;;;;;5138470;27;19968;-71
2023/05/08 05:29:29;;;;;;;;;;;10.60;99.90;;;;;;5130878;27;20306;-71
2023/05/08 05:31:55;;;;;;;;;;;10.70;99.90;;;;;;5113762;27;20502;-71
2023/05/08 05:34:21;;;;;;;;;;;11.00;99.90;;;;;;5108971;27;19923;-71
2023/05/08 05:36:46;;;;;;;;;;;11.40;99.90;;;;;;5137843;27;19989;-71
2023/05/08 05:39:12;;;;;;;;;;;11.60;99.90;;;;;;5135220;27;19944;-71
2023/05/08 05:41:38;;;;;;;;;;;11.60;99.90;;;;;;5135075;27;19963;-71
2023/05/08 05:44:03;;;;;;;;;;;11.60;99.90;;;;;;5128969;27;19926;-71
2023/05/08 05:46:31;;;;;;;;;;;11.50;99.90;;;;;;5131169;27;20377;-71
2023/05/08 05:48:57;;;;;;;;;;;11.40;99.90;;;;;;5124937;27;19920;-71
2023/05/08 05:51:23;;;;;;;;;;;11.40;99.90;;;;;;5130716;27;19919;-71
2023/05/08 05:53:48;;;;;;;;;;;11.40;99.90;;;;;;5137514;27;19915;-71
2023/05/08 05:56:14;;;;;;;;;;;11.40;99.90;;;;;;5116726;27;19960;-71
2023/05/08 05:58:43;;;;;;;;;;;11.50;99.90;;;;;;5131128;27;20002;-69
2023/05/08 06:01:09;;;;;;;;;;;11.60;99.90;;;;;;5132770;27;20354;-70
2023/05/08 06:03:35;;;;;;;;;;;11.70;99.90;;;;;;5140868;27;20006;-71
2023/05/08 06:06:00;;;;;;;;;;;11.80;99.90;;;;;;5141861;27;19930;-70
2023/05/08 06:08:26;;;;;;;;;;;12.20;99.90;;;;;;5144546;27;19963;-69
2023/05/08 06:10:52;;;;;;;;;;;12.70;99.90;;;;;;5129277;27;19968;-69
2023/05/08 06:13:17;;;;;;;;;;;13.20;99.90;;;;;;5136349;27;19923;-70
2023/05/08 06:15:43;;;;;;;;;;;13.60;99.90;;;;;;5152860;27;20331;-68
2023/05/08 06:18:08;;;;;;;;;;;14.10;99.90;;;;;;5137155;27;19918;-68
2023/05/08 06:20:35;;;;;;;;;;;14.50;99.90;;;;;;5154711;27;19915;-68
2023/05/08 06:23:01;;;;;;;;;;;14.70;70.50;;;;;;5154599;27;20006;-69
2023/05/08 06:25:27;;;;;;;;;;;15.00;81.30;;;;;;5152634;27;20017;-68
2023/05/08 06:27:52;;;;;;;;;;;15.10;21.00;;;;;;5137441;27;19914;-69
2023/05/08 06:30:18;;;;;;;;;;;15.10;42.60;;;;;;5154549;27;19936;-68
2023/05/08 06:32:43;;;;;;;;;;;15.30;60.80;;;;;;5136852;27;19922;-69
2023/05/08 06:35:09;;;;;;;;;;;15.50;38.90;;;;;;5150743;27;19938;-68
2023/05/08 06:37:35;;;;;;;;;;;15.20;56.00;;;;;;5133582;27;20055;-68
2023/05/08 06:40:00;;;;;;;;;;;15.00;57.90;;;;;;5116278;27;19942;-68
2023/05/08 06:42:26;;;;;;;;;;;14.80;98.60;;;;;;5133449;27;20067;-68
2023/05/08 06:44:52;;;;;;;;;;;14.60;99.90;;;;;;5134907;27;19923;-69
2023/05/08 06:47:18;;;;;;;;;;;14.40;96.60;;;;;;5133221;27;20446;-68
2023/05/08 06:49:43;;;;;;;;;;;14.40;99.90;;;;;;5133383;27;19958;-69
2023/05/08 06:52:09;;;;;;;;;;;14.20;94.10;;;;;;5116018;27;19923;-69
2023/05/08 06:54:35;;;;;;;;;;;14.10;99.90;;;;;;5133500;27;19993;-68
2023/05/08 06:57:00;;;;;;;;;;;14.10;99.90;;;;;;5132992;27;19968;-69
2023/05/08 06:59:26;;;;;;;;;;;14.00;99.90;;;;;;5132378;27;19919;-69
2023/05/08 07:01:51;;;;;;;;;;;13.90;99.90;;;;;;5131347;27;19959;-69
2023/05/08 07:04:17;;;;;;;;;;;14.00;99.90;;;;;;5114537;28;19915;-69
2023/05/08 07:06:42;;;;;;;;;;;14.00;99.90;;;;;;5131466;28;19915;-69
2023/05/08 07:09:09;;;;;;;;;;;14.00;99.90;;;;;;5131769;27;19919;-69
2023/05/08 07:11:34;;;;;;;;;;;13.90;99.90;;;;;;5131509;28;19930;-69
2023/05/08 07:14:00;;;;;;;;;;;13.90;99.90;;;;;;5131658;28;19939;-69
2023/05/08 07:16:25;;;;;;;;;;;14.00;99.90;;;;;;5114529;28;19920;-69
2023/05/08 07:18:51;;;;;;;;;;;14.10;99.90;;;;;;5131647;28;19941;-69
2023/05/08 07:21:19;;;;;;;;;;;14.20;99.90;;;;;;5131652;27;19923;-69
2023/05/08 07:23:44;;;;;;;;;;;14.20;99.90;;;;;;5114836;28;19962;-69
2023/05/08 07:26:10;;;;;;;;;;;14.10;99.90;;;;;;5131772;28;19970;-69
2023/05/08 07:28:35;;;;;;;;;;;14.20;99.90;;;;;;5114271;28;19928;-69
2023/05/08 07:31:05;;;;;;;;;;;14.30;99.90;;;;;;5131351;28;19949;-69
2023/05/08 07:33:32;;;;;;;;;;;14.20;99.90;;;;;;5131405;28;19920;-69
2023/05/08 07:35:58;;;;;;;;;;;14.30;99.90;;;;;;5120855;28;20387;-69
2023/05/08 07:38:24;;;;;;;;;;;14.60;99.90;;;;;;5112166;28;19962;-69
2023/05/08 07:40:52;;;;;;;;;;;14.80;99.90;;;;;;5110661;28;20014;-69
2023/05/08 07:43:17;;;;;;;;;;;15.20;99.90;;;;;;5110575;28;19994;-69
2023/05/08 07:45:43;;;;;;;;;;;15.20;90.00;;;;;;5110494;28;20010;-69
2023/05/08 07:48:08;;;;;;;;;;;15.20;93.70;;;;;;5110666;28;20030;-69
2023/05/08 07:50:35;;;;;;;;;;;15.30;99.90;;;;;;5093759;28;19925;-69
2023/05/08 07:53:00;;;;;;;;;;;15.50;99.90;;;;;;5110378;28;20391;-69
2023/05/08 07:55:26;;;;;;;;;;;15.40;47.60;;;;;;5110783;28;19916;-69
2023/05/08 07:57:51;;;;;;;;;;;15.20;57.80;;;;;;5110474;28;20365;-69
2023/05/08 08:00:17;;;;;;;;;;;14.90;92.20;;;;;;5072247;28;1100521;-69
2023/05/08 08:02:43;;;;;;;;;;;14.70;99.90;;;;;;5111332;28;19920;-69
2023/05/08 08:05:09;;;;;;;;;;;14.60;99.90;;;;;;5111066;28;19919;-69
2023/05/08 08:07:34;;;;;;;;;;;14.50;99.90;;;;;;5111298;28;19951;-69
2023/05/08 08:10:01;;;;;;;;;;;14.40;99.90;;;;;;5111255;28;19920;-69
2023/05/08 08:12:27;;;;;;;;;;;14.20;99.90;;;;;;5110073;28;19930;-70
2023/05/08 08:14:53;;;;;;;;;;;14.20;99.90;;;;;;5124507;27;20420;-70
2023/05/08 08:17:18;;;;;;;;;;;14.30;99.90;;;;;;5130374;27;19919;-69
2023/05/08 08:19:44;;;;;;;;;;;14.50;99.90;;;;;;5130734;27;20007;-69
2023/05/08 08:22:09;;;;;;;;;;;14.50;99.90;;;;;;5131046;27;20328;-69
2023/05/08 08:24:35;;;;;;;;;;;14.60;99.90;;;;;;5131776;27;19980;-70
2023/05/08 08:27:01;;;;;;;;;;;14.80;99.90;;;;;;5131409;27;20282;-69
2023/05/08 08:29:26;;;;;;;;;;;14.90;99.90;;;;;;5131422;27;19915;-70
2023/05/08 08:31:52;;;;;;;;;;;15.00;99.90;;;;;;5131389;27;19919;-69
2023/05/08 08:34:18;;;;;;;;;;;15.10;99.90;;;;;;5131385;27;20255;-70
2023/05/08 08:36:43;;;;;;;;;;;15.10;99.90;;;;;;5130993;27;19922;-69
2023/05/08 08:39:09;;;;;;;;;;;15.30;99.90;;;;;;5131227;27;19919;-70
2023/05/08 08:41:34;;;;;;;;;;;15.30;99.90;;;;;;5130906;27;19919;-70
2023/05/08 08:44:00;;;;;;;;;;;15.40;99.90;;;;;;5131012;27;19926;-70
2023/05/08 08:46:26;;;;;;;;;;;15.50;99.90;;;;;;5131100;27;20027;-69
2023/05/08 08:48:53;;;;;;;;;;;15.50;99.90;;;;;;5131181;27;19945;-69
2023/05/08 08:51:39;;;;;;;;;;;15.60;99.90;;;;;;5131095;27;20282;-70
2023/05/08 08:54:09;;;;;;;;;;;15.60;99.90;;;;;;5130149;27;20397;-69
2023/05/08 08:56:41;;;;;;;;;;;15.90;99.90;;;;;;5131081;27;20017;-69
2023/05/08 08:59:08;;;;;;;;;;;16.00;99.90;;;;;;5130872;27;20279;-70
2023/05/08 09:01:37;;;;;;;;;;;16.00;99.90;;;;;;5130669;27;19916;-69
2023/05/08 09:04:02;;;;;;;;;;;16.00;99.90;;;;;;5130549;27;20002;-70
2023/05/08 09:06:28;;;;;;;;;;;16.10;95.60;;;;;;5131130;27;20014;-70
2023/05/08 09:08:55;;;;;;;;;;;16.20;90.70;;;;;;5130993;27;19919;-70
2023/05/08 09:11:20;;;;;;;;;;;16.40;99.90;;;;;;5130859;27;20370;-69
2023/05/08 09:13:46;;;;;;;;;;;16.50;82.30;;;;;;5130670;27;19962;-70
2023/05/08 09:16:12;;;;;;;;;;;16.80;99.90;;;;;;5130486;27;19986;-69
2023/05/08 09:18:37;;;;;;;;;;;16.90;57.80;;;;;;5130661;27;19972;-70
2023/05/08 09:21:04;;;;;;;;;;;17.00;53.00;;;;;;5113297;27;19961;-70
2023/05/08 09:23:30;;;;;;;;;;;17.60;87.80;;;;;;5130371;27;19922;-70
2023/05/08 09:25:55;;;;;;;;;;;18.20;12.20;;;;;;5130436;27;19919;-70
2023/05/08 09:28:22;;;;;;;;;;;18.50;38.30;;;;;;5130460;27;19916;-70
2023/05/08 09:30:48;;;;;;;;;;;18.40;99.90;;;;;;5130563;27;19915;-69
2023/05/08 09:33:14;;;;;;;;;;;18.50;1.00;;;;;;5130348;27;20013;-70
2023/05/08 09:35:40;;;;;;;;;;;18.50;1.00;;;;;;5130435;27;20023;-70
2023/05/08 09:38:05;;;;;;;;;;;18.80;1.00;;;;;;5130583;28;19919;-69
2023/05/08 09:40:31;;;;;;;;;;;18.90;1.00;;;;;;5130522;28;19968;-70
2023/05/08 09:42:57;;;;;;;;;;;19.10;1.00;;;;;;5130304;28;19981;-70
2023/05/08 09:45:34;;;;;;;;;;;19.40;1.00;;;;;;5113278;27;20298;-70
2023/05/08 09:47:59;;;;;;;;;;;19.70;1.00;;;;;;5130137;28;20363;-70
2023/05/08 09:50:25;;;;;;;;;;;19.70;99.90;;;;;;5130331;28;20017;-70
2023/05/08 09:52:51;;;;;;;;;;;19.90;99.90;;;;;;5130162;28;19923;-70
2023/05/08 09:55:17;;;;;;;;;;;19.90;99.90;;;;;;5130013;28;19915;-70
2023/05/08 09:57:53;;;;;;;;;;;20.10;99.90;;;;;;5130220;28;19915;-69
2023/05/08 10:00:19;;;;;;;;;;;20.00;99.90;;;;;;5112836;28;19972;-70
2023/05/08 10:02:55;;;;;;;;;;;20.20;99.90;;;;;;5130029;27;19915;-71
2023/05/08 10:05:29;;;;;;;;;;;20.30;99.90;;;;;;5129960;28;19923;-70
2023/05/08 10:07:55;;;;;;;;;;;20.50;99.90;;;;;;5129971;28;19972;-70
2023/05/08 10:10:23;;;;;;;;;;;20.60;99.90;;;;;;5112698;28;19919;-69
2023/05/08 10:12:49;;;;;;;;;;;20.70;99.90;;;;;;5129833;28;19933;-70
2023/05/08 10:15:15;;;;;;;;;;;20.60;99.90;;;;;;5129032;28;19919;-70
2023/05/08 10:17:49;;;;;;;;;;;20.80;99.90;;;;;;5128145;28;20465;-70
2023/05/08 10:20:17;;;;;;;;;;;20.90;99.90;;;;;;5128198;27;20398;-70
2023/05/08 10:22:43;;;;;;;;;;;20.90;99.90;;;;;;5128516;28;20346;-70
2023/05/08 10:25:12;;;;;;;;;;;20.90;99.90;;;;;;5129555;28;19919;-69
2023/05/08 10:27:40;;;;;;;;;;;20.90;99.90;;;;;;5130154;28;19923;-70
2023/05/08 10:30:08;;;;;;;;;;;21.10;99.90;;;;;;5129882;28;19941;-70
2023/05/08 10:32:37;;;;;;;;;;;21.10;99.90;;;;;;5129887;28;20059;-70
2023/05/08 10:35:04;;;;;;;;;;;21.20;99.90;;;;;;5130331;27;19922;-70
2023/05/08 10:37:30;;;;;;;;;;;21.40;99.90;;;;;;5134107;27;19915;-70
2023/05/08 10:39:56;;;;;;;;;;;21.50;99.90;;;;;;5116741;27;20289;-69
2023/05/08 10:42:22;;;;;;;;;;;21.70;99.90;;;;;;5132186;27;19916;-70
2023/05/08 10:44:48;;;;;;;;;;;21.80;99.90;;;;;;5115975;27;20282;-70
2023/05/08 10:47:13;;;;;;;;;;;21.90;79.60;;;;;;5132632;27;19919;-70
2023/05/08 10:49:46;;;;;;;;;;;21.90;64.90;;;;;;5133082;27;19915;-70
2023/05/08 10:52:15;;;;;;;;;;;22.00;80.90;;;;;;5132023;27;19919;-69
2023/05/08 10:54:47;;;;;;;;;;;22.20;88.10;;;;;;5133492;27;19962;-69
2023/05/08 10:57:13;;;;;;;;;;;22.40;50.70;;;;;;5134727;27;19982;-70
2023/05/08 10:59:43;;;;;;;;;;;22.40;69.90;;;;;;5133061;27;20001;-70
2023/05/08 11:02:09;;;;;;;;;;;22.50;77.40;;;;;;5134655;27;19919;-70
2023/05/08 11:04:35;;;;;;;;;;;22.50;75.30;;;;;;5133116;27;19960;-70
2023/05/08 11:07:00;;;;;;;;;;;22.60;72.10;;;;;;5133370;27;19923;-70
2023/05/08 11:09:43;;;;;;;;;;;22.50;69.40;;;;;;5133144;27;19919;-70
2023/05/08 11:12:14;;;;;;;;;;;22.70;33.70;;;;;;5132725;27;19935;-70
2023/05/08 11:14:41;;;;;;;;;;;22.70;24.90;;;;;;5132749;27;19926;-69
2023/05/08 11:17:07;;;;;;;;;;;22.80;9.00;;;;;;5133037;27;19971;-70
2023/05/08 11:19:33;;;;;;;;;;;22.90;54.20;;;;;;5132877;27;19915;-69
2023/05/08 11:22:18;;;;;;;;;;;23.00;9.60;;;;;;5134285;27;19923;-69
2023/05/08 11:24:52;;;;;;;;;;;23.30;47.20;;;;;;5134182;27;19919;-70
2023/05/08 11:27:29;;;;;;;;;;;23.30;24.40;;;;;;5132593;27;19972;-70
2023/05/08 11:30:16;;;;;;;;;;;23.40;33.10;;;;;;5132844;27;19920;-70
2023/05/08 11:33:01;;;;;;;;;;;23.50;8.90;;;;;;5132423;27;19919;-69
2023/05/08 11:35:40;;;;;;;;;;;23.90;28.10;;;;;;5132446;27;19923;-69
2023/05/08 11:38:24;;;;;;;;;;;24.10;1.00;;;;;;5132756;27;20460;-70
2023/05/08 11:40:57;;;;;;;;;;;24.20;1.00;;;;;;5132606;27;20323;-70
2023/05/08 11:43:28;;;;;;;;;;;24.10;1.00;;;;;;5132454;27;19920;-70
2023/05/08 11:45:58;;;;;;;;;;;24.30;1.00;;;;;;5132518;27;19926;-70
2023/05/08 11:48:24;;;;;;;;;;;24.40;1.00;;;;;;5131119;27;19916;-69
2023/05/08 11:50:50;;;;;;;;;;;24.30;1.00;;;;;;5132322;27;19976;-70
2023/05/08 11:53:15;;;;;;;;;;;24.30;1.00;;;;;;5115038;27;20442;-70
2023/05/08 11:55:41;;;;;;;;;;;24.40;1.00;;;;;;5132031;27;19915;-70
2023/05/08 11:58:10;;;;;;;;;;;24.30;1.00;;;;;;5114898;27;19916;-69
2023/05/08 12:00:39;;;;;;;;;;;24.40;1.00;;;;;;5132319;27;19949;-70
2023/05/08 12:03:05;;;;;;;;;;;24.50;1.00;;;;;;5131647;27;20434;-70
2023/05/08 12:05:31;;;;;;;;;;;24.70;1.00;;;;;;5132241;27;20034;-70
2023/05/08 12:07:58;;;;;;;;;;;24.70;1.00;;;;;;5131838;27;20425;-70
2023/05/08 12:10:23;;;;;;;;;;;24.60;1.00;;;;;;5133200;27;20286;-70
2023/05/08 12:12:49;;;;;;;;;;;24.30;1.00;;;;;;5132051;27;19927;-70
2023/05/08 12:15:14;;;;;;;;;;;24.40;1.00;;;;;;5131817;27;20338;-70
2023/05/08 12:17:41;;;;;;;;;;;24.50;1.00;;;;;;5131732;27;19958;-70
2023/05/08 12:20:13;;;;;;;;;;;24.90;1.00;;;;;;5131616;27;20414;-70
2023/05/08 12:22:40;;;;;;;;;;;25.10;1.00;;;;;;5131463;27;19922;-70
2023/05/08 12:25:06;;;;;;;;;;;25.40;1.00;;;;;;5131462;27;19975;-70
2023/05/08 12:27:31;;;;;;;;;;;25.10;1.00;;;;;;5131350;27;19926;-69
2023/05/08 12:29:57;;;;;;;;;;;24.80;1.00;;;;;;5131257;27;19998;-69
2023/05/08 12:32:23;;;;;;;;;;;24.30;1.00;;;;;;5131378;27;19927;-70
2023/05/08 12:34:48;;;;;;;;;;;24.40;1.00;;;;;;5131164;27;19968;-70
2023/05/08 12:37:26;;;;;;;;;;;24.70;1.00;;;;;;5131215;27;19922;-70
2023/05/08 12:39:52;;;;;;;;;;;25.10;1.00;;;;;;5131212;27;20633;-70
2023/05/08 12:42:17;;;;;;;;;;;25.00;1.00;;;;;;5113987;27;20010;-70
2023/05/08 12:44:49;;;;;;;;;;;24.90;1.00;;;;;;5114049;27;19919;-70
2023/05/08 12:47:17;;;;;;;;;;;24.90;1.00;;;;;;5131124;27;19923;-69
2023/05/08 12:49:42;;;;;;;;;;;24.90;1.00;;;;;;5114362;27;19919;-70
2023/05/08 12:52:11;;;;;;;;;;;25.10;1.00;;;;;;5130800;27;20297;-69
2023/05/08 12:54:45;;;;;;;;;;;25.30;1.00;;;;;;5130843;27;20347;-69
2023/05/08 12:57:11;;;;;;;;;;;25.00;1.00;;;;;;5131172;27;20354;-70
2023/05/08 12:59:37;;;;;;;;;;;24.70;1.00;;;;;;5130335;27;19923;-70
2023/05/08 13:02:02;;;;;;;;;;;24.80;1.00;;;;;;5130728;27;19919;-70
2023/05/08 13:04:28;;;;;;;;;;;24.50;1.00;;;;;;5130727;27;19923;-70
2023/05/08 13:06:54;;;;;;;;;;;24.20;1.00;;;;;;5130937;27;19919;-70
2023/05/08 13:09:20;;;;;;;;;;;24.10;1.00;;;;;;5130640;27;20394;-70
2023/05/08 13:11:46;;;;;;;;;;;24.00;1.00;;;;;;5130637;27;19925;-70
2023/05/08 13:14:11;;;;;;;;;;;24.30;1.00;;;;;;5130930;27;19919;-70
2023/05/08 13:16:40;;;;;;;;;;;24.50;1.00;;;;;;5130884;27;19966;-70
2023/05/08 13:19:06;;;;;;;;;;;24.50;1.00;;;;;;5130657;27;19919;-70
2023/05/08 13:21:32;;;;;;;;;;;24.80;1.00;;;;;;5130571;27;19926;-70
2023/05/08 13:23:57;;;;;;;;;;;25.10;1.00;;;;;;5130806;27;19916;-70
2023/05/08 13:26:24;;;;;;;;;;;24.50;1.00;;;;;;5130546;27;20269;-70
2023/05/08 13:28:50;;;;;;;;;;;24.10;1.00;;;;;;5113756;27;19918;-70
2023/05/08 13:31:15;;;;;;;;;;;23.70;1.00;;;;;;5130285;27;19923;-70
2023/05/08 13:33:41;;;;;;;;;;;23.40;1.00;;;;;;5130220;27;19943;-69
2023/05/08 13:36:07;;;;;;;;;;;23.30;1.00;;;;;;5130080;28;19926;-70
2023/05/08 13:38:33;;;;;;;;;;;23.80;1.00;;;;;;5130200;28;20386;-70
2023/05/08 13:40:59;;;;;;;;;;;24.00;1.00;;;;;;5130365;28;20002;-70
2023/05/08 13:43:24;;;;;;;;;;;24.20;1.00;;;;;;5130594;28;20382;-70
2023/05/08 13:45:50;;;;;;;;;;;23.90;1.00;;;;;;5130143;28;19919;-70
2023/05/08 13:48:15;;;;;;;;;;;24.00;1.00;;;;;;5130293;28;19919;-70
2023/05/08 13:50:41;;;;;;;;;;;24.00;1.00;;;;;;5130187;28;19946;-69
2023/05/08 13:53:06;;;;;;;;;;;24.10;1.00;;;;;;5130100;28;19930;-70
2023/05/08 13:55:32;;;;;;;;;;;24.10;1.00;;;;;;5130439;28;20014;-70
2023/05/08 13:57:58;;;;;;;;;;;24.50;1.00;;;;;;5129955;28;20389;-70
2023/05/08 14:00:23;;;;;;;;;;;24.80;1.00;;;;;;5130447;28;19915;-70
2023/05/08 14:02:49;;;;;;;;;;;25.10;1.00;;;;;;5113238;28;20056;-70
2023/05/08 14:05:15;;;;;;;;;;;25.40;1.00;;;;;;5131548;27;20370;-70
2023/05/08 14:07:41;;;;;;;;;;;25.60;1.00;;;;;;5129920;28;19919;-70
2023/05/08 14:10:07;;;;;;;;;;;25.20;99.90;;;;;;5130647;27;19927;-70
2023/05/08 14:12:35;;;;;;;;;;;24.80;1.00;;;;;;5133785;27;20006;-70
2023/05/08 14:15:02;;;;;;;;;;;24.50;1.00;;;;;;5133993;27;19968;-70
2023/05/08 14:17:27;;;;;;;;;;;24.30;1.00;;;;;;5099915;27;19919;-70
2023/05/08 14:19:53;;;;;;;;;;;24.60;1.00;;;;;;5134056;27;19964;-70
2023/05/08 14:22:18;;;;;;;;;;;24.60;1.00;;;;;;5134153;27;19926;-70
2023/05/08 14:24:44;;;;;;;;;;;24.90;1.00;;;;;;5133909;27;20395;-70